Terminal Aerodrome Forecast
Issued by NWS

Home | Current Version | Previous Version | Text Only | Print | Product List | Glossary On
Versions: 1 2 3 4 5 6 7 8 9 10 11 12 13 14 15
000
FTUS44 KMAF 040523 CCA
TAFPEQ
TAF COR
KPEQ 040523Z 0406/0506 12010KT P6SM FEW130 BKN200
     FM041500 11011KT P6SM SCT040 SCT130=

USA.gov is the U.S. government's official web portal to all federal, state and local government web resources and services.